Weather reports worldwide

Advertisment
Alto De Los Leones, Spain (8217): temperature & dewpoint: 20.09.2018 17:00:00 - 26.09.2018 17:00:00 (CEST)Alto De Los Leones, Spain (8217): wind speed & gusts: 20.09.2018 17:00:00 - 26.09.2018 17:00:00 (CEST)Alto De Los Leones, Spain (8217): wind direction: 20.09.2018 17:00:00 - 26.09.2018 17:00:00 (CEST)Alto De Los Leones, Spain (8217): precipitation: 20.09.2018 17:00:00 - 26.09.2018 17:00:00 (CEST)
Date & Time tt [°C] td [°C] ff [km/h] ff [kn] fx [km/h] fx [kn] dd rr [mm]
26.09.2018 17:00:00 15,7 9,2 18 10 31 17 E 0,0
26.09.2018 16:00:00 14,6 11,9 21 11 31 17 E 0,0
26.09.2018 15:00:00 13,6 11,0 21 11 35 19 E 0,0
26.09.2018 14:00:00 13,7 11,0 22 12 34 18 E -
26.09.2018 13:00:00 13,3 10,9 22 12 33 18 E 0,0
26.09.2018 12:00:00 12,8 10,3 23 12 35 19 E 0,1
26.09.2018 11:00:00 12,7 10,3 24 13 35 19 E 0,2
26.09.2018 10:00:00 12,4 9,9 24 13 36 19 E 0,0
26.09.2018 09:00:00 12,5 8,4 22 12 34 18 E 0,0
26.09.2018 08:00:00 12,5 7,8 21 11 31 17 E -
26.09.2018 07:00:00 12,6 8,1 20 11 31 17 E 0,0
26.09.2018 06:00:00 12,7 8,8 21 12 33 18 E 0,0
26.09.2018 05:00:00 12,8 7,0 21 12 31 17 E 0,0
26.09.2018 04:00:00 12,9 3,6 21 11 30 16 E 0,0
26.09.2018 03:00:00 14,1 3,6 21 12 31 17 E 0,0
26.09.2018 02:00:00 14,9 3,4 20 11 42 23 E -
26.09.2018 01:00:00 15,2 2,7 17 9 28 15 E 0,0
26.09.2018 00:00:00 16,1 2,9 14 7 21 12 E 0,0
25.09.2018 23:00:00 16,3 2,7 11 6 17 9 E 0,0
25.09.2018 22:00:00 16,3 2,7 11 6 17 9 E 0,0
25.09.2018 21:00:00 16,1 2,1 13 7 21 12 E 0,0
25.09.2018 20:00:00 - - - - - - - -
25.09.2018 19:00:00 21,6 2,9 17 9 27 14 E 0,0
25.09.2018 18:00:00 22,6 3,2 16 9 28 15 E 0,0
25.09.2018 17:00:00 24,1 5,0 16 9 29 16 E 0,0
25.09.2018 16:00:00 23,2 4,1 12 7 19 11 E 0,0
25.09.2018 15:00:00 23,2 4,6 5 3 20 11 E 0,0
25.09.2018 14:00:00 22,8 5,3 8 4 18 10 E -
25.09.2018 13:00:00 21,4 6,5 8 4 18 10 E 0,0
25.09.2018 12:00:00 18,2 5,1 12 7 21 11 E 0,0
25.09.2018 11:00:00 18,6 5,8 9 5 16 9 E 0,0
25.09.2018 10:00:00 17,1 5,6 6 3 12 6 E 0,0
25.09.2018 09:00:00 15,6 4,3 3 1 7 4 E 0,0
25.09.2018 08:00:00 13,4 2,3 1 1 8 5 E -
25.09.2018 07:00:00 12,6 1,3 7 4 14 7 E 0,0
25.09.2018 06:00:00 12,0 0,6 9 5 11 6 E 0,0
25.09.2018 05:00:00 13,1 1,5 10 5 18 10 E 0,0
25.09.2018 04:00:00 13,5 1,5 15 8 23 13 E 0,0
25.09.2018 03:00:00 13,4 4,3 17 9 24 13 E 0,0
25.09.2018 02:00:00 13,0 4,5 18 10 25 13 E -
25.09.2018 01:00:00 11,9 3,4 16 9 21 11 E 0,0
25.09.2018 00:00:00 12,4 3,4 16 9 23 13 E 0,0
24.09.2018 23:00:00 13,4 3,2 19 11 24 13 E 0,0
24.09.2018 22:00:00 15,0 3,2 19 10 29 16 E 0,0
24.09.2018 21:00:00 16,8 4,1 21 12 30 16 E 0,0
24.09.2018 20:00:00 19,8 4,6 17 9 34 18 E -
24.09.2018 19:00:00 22,3 4,8 22 12 33 18 E 0,0
24.09.2018 18:00:00 23,9 4,8 19 11 33 18 E 0,0
24.09.2018 17:00:00 24,6 5,3 21 11 38 21 E 0,0
24.09.2018 16:00:00 24,4 4,6 20 11 32 17 E 0,0
24.09.2018 15:00:00 23,4 4,3 20 11 32 17 E 0,0
24.09.2018 14:00:00 23,0 3,9 18 10 29 16 E -
24.09.2018 13:00:00 22,2 1,7 16 8 24 13 E 0,0
24.09.2018 12:00:00 21,6 1,7 11 6 18 10 E 0,0
24.09.2018 11:00:00 20,3 1,3 9 5 12 7 E 0,0
24.09.2018 10:00:00 17,8 0,4 7 4 9 5 E 0,0
24.09.2018 09:00:00 16,5 -0,7 4 2 10 5 E 0,0
24.09.2018 08:00:00 16,0 -0,3 7 4 9 5 E -
24.09.2018 07:00:00 16,9 1,7 8 4 13 7 E 0,0
24.09.2018 06:00:00 17,5 -1,2 3 2 9 5 E 0,0
24.09.2018 05:00:00 17,9 -2,0 1 1 13 7 E 0,0
24.09.2018 04:00:00 17,8 -2,0 10 5 13 7 E 0,0
24.09.2018 03:00:00 17,9 -2,0 9 5 14 7 E 0,0
24.09.2018 02:00:00 18,0 -1,7 10 5 16 9 E -
24.09.2018 01:00:00 17,9 -2,0 12 7 19 10 E 0,0
24.09.2018 00:00:00 17,6 -2,2 13 7 20 11 E 0,0
23.09.2018 23:00:00 17,5 -2,2 16 9 24 13 E 0,0
23.09.2018 22:00:00 17,6 -1,7 16 9 23 12 E 0,0
23.09.2018 21:00:00 18,5 -1,4 16 9 28 15 E 0,0
23.09.2018 20:00:00 21,6 -0,5 19 11 31 17 E -
23.09.2018 19:00:00 23,6 0,0 20 11 32 17 E 0,0
23.09.2018 18:00:00 24,8 1,1 19 10 37 20 E 0,0
23.09.2018 17:00:00 25,3 1,5 19 10 35 19 E 0,0
23.09.2018 16:00:00 25,2 1,3 17 9 34 18 E 0,0
23.09.2018 15:00:00 24,7 1,5 19 10 33 18 E 0,0
23.09.2018 14:00:00 24,6 2,1 13 7 31 17 E -
23.09.2018 13:00:00 23,7 2,5 14 8 23 12 E 0,0
23.09.2018 12:00:00 22,7 1,7 12 6 19 10 E 0,0
23.09.2018 11:00:00 21,6 1,3 8 4 12 7 E 0,0
23.09.2018 10:00:00 19,9 0,9 6 3 9 5 E 0,0
23.09.2018 09:00:00 18,5 -0,5 5 3 9 5 E 0,0
23.09.2018 08:00:00 17,2 -1,0 5 3 6 3 E -
23.09.2018 07:00:00 17,4 -1,2 5 3 6 3 E 0,0
23.09.2018 06:00:00 17,7 -1,0 3 2 6 3 E 0,0
23.09.2018 05:00:00 18,7 -0,7 6 3 11 6 E 0,0
23.09.2018 04:00:00 18,7 -0,7 8 4 11 6 E 0,0
23.09.2018 03:00:00 17,8 -0,5 9 5 11 6 E 0,0
23.09.2018 02:00:00 16,8 -1,0 11 6 14 7 E -
23.09.2018 01:00:00 17,9 -0,5 10 5 15 8 E 0,0
23.09.2018 00:00:00 17,7 -0,5 12 6 16 9 E 0,0
22.09.2018 23:00:00 18,0 -0,3 12 6 16 9 E 0,0
22.09.2018 22:00:00 18,4 0,0 13 7 18 10 E 0,0
22.09.2018 21:00:00 18,4 0,0 12 6 18 10 E 0,0
22.09.2018 20:00:00 21,3 0,4 13 7 26 14 E -
22.09.2018 19:00:00 23,3 0,4 16 9 28 15 E 0,0
22.09.2018 18:00:00 24,6 2,1 13 7 29 16 E 0,0
22.09.2018 17:00:00 24,7 2,7 16 9 28 15 E 0,0
22.09.2018 16:00:00 24,9 2,9 17 9 31 17 E 0,0
22.09.2018 15:00:00 23,9 3,8 20 11 34 18 E 0,0
22.09.2018 14:00:00 24,2 4,5 18 10 35 19 E -
22.09.2018 13:00:00 23,1 4,1 16 9 27 15 E 0,0
22.09.2018 12:00:00 22,8 4,8 9 5 16 9 E 0,0
22.09.2018 11:00:00 20,9 5,3 10 5 14 8 E 0,0
22.09.2018 10:00:00 19,1 4,8 1 0 9 5 E 0,0
22.09.2018 09:00:00 18,4 5,0 0 0 6 4 E 0,0
22.09.2018 08:00:00 16,9 4,3 0 0 7 4 N -
22.09.2018 07:00:00 16,0 3,4 0 0 4 2 N 0,0
22.09.2018 06:00:00 16,0 3,8 3 1 8 4 E 0,0
22.09.2018 05:00:00 15,9 3,6 6 3 7 4 E 0,0
22.09.2018 04:00:00 16,1 3,6 5 3 9 5 E 0,0
22.09.2018 03:00:00 16,7 3,8 5 3 9 5 E 0,0
22.09.2018 02:00:00 17,3 3,9 7 4 10 5 E -
22.09.2018 01:00:00 16,7 4,1 8 4 12 7 E 0,0
22.09.2018 00:00:00 16,5 3,9 9 5 15 8 E 0,0
21.09.2018 23:00:00 16,0 3,4 13 7 19 11 E 0,0
21.09.2018 22:00:00 16,8 3,8 15 8 22 12 E 0,0
21.09.2018 21:00:00 17,5 3,4 16 9 25 13 E 0,0
21.09.2018 20:00:00 19,0 3,6 18 10 31 17 E -
21.09.2018 19:00:00 21,2 4,3 18 10 30 16 E 0,0
21.09.2018 18:00:00 22,3 4,8 19 10 31 17 E 0,0
21.09.2018 17:00:00 23,1 4,6 16 9 31 17 E 0,0
21.09.2018 16:00:00 23,1 4,6 12 7 26 14 E 0,0
21.09.2018 15:00:00 22,2 5,1 11 6 26 14 E 0,0
21.09.2018 14:00:00 22,0 5,5 10 6 20 11 E -
21.09.2018 13:00:00 20,1 5,0 8 4 15 8 E 0,0
21.09.2018 12:00:00 18,4 4,1 8 5 13 7 E 0,0
21.09.2018 11:00:00 16,5 3,6 10 5 21 12 E 0,0
21.09.2018 10:00:00 14,2 3,0 17 9 25 14 E 0,0
21.09.2018 09:00:00 12,8 2,7 14 7 22 12 E 0,0
21.09.2018 08:00:00 13,1 2,7 9 5 13 7 E -
21.09.2018 07:00:00 13,3 2,3 11 6 23 12 E 0,0
21.09.2018 06:00:00 14,5 3,2 14 8 19 10 E 0,0
21.09.2018 05:00:00 13,1 4,8 16 9 21 11 E 0,0
21.09.2018 04:00:00 13,5 5,1 16 9 24 13 E 0,0
21.09.2018 03:00:00 14,1 5,8 19 10 25 14 E 0,0
21.09.2018 02:00:00 14,4 5,9 21 12 31 17 E -
21.09.2018 01:00:00 15,1 5,8 19 10 24 13 E 0,0
21.09.2018 00:00:00 16,7 5,6 9 5 11 6 E 0,0
20.09.2018 23:00:00 17,3 6,2 8 4 10 6 E 0,0
20.09.2018 22:00:00 17,1 5,9 9 5 13 7 E 0,0
20.09.2018 21:00:00 16,9 6,4 9 5 17 9 E 0,0
20.09.2018 20:00:00 17,3 6,8 13 7 42 23 E -
20.09.2018 19:00:00 18,4 7,4 6 4 24 13 E 0,0
20.09.2018 18:00:00 20,4 5,6 10 6 21 12 E 0,0
20.09.2018 17:00:00 20,8 4,8 11 6 25 13 E 0,0

tt = temperature
td = dewpoint
ff = wind speed
fx = gusts
dd = wind direction
rr = precipitation

Next stations